M I D A S
Marine Information and Data Acquisition System
Tripno 1367 of the Zeeleeuw from 2007-11-28 07:47:49 to 2007-11-28 14:43:21
Back to CruiseResearch ActivitiesStationsMapUnderway DataData graphs

EquipmentUnitsComments
TimeDGPSUTC
LatitudeDGPSDM.mWGS84
LongitudeDGPSDM.mWGS84
SpeedMeteo Stationm/sRelative wind speed
DirectionMeteo StationdegRelative wind direction
TemperatureMeteo Stationdeg CelciusAir temperature
PressureMeteo StationPaAtmospheric pressure
HumidityMeteo Station%Relative humidity
Missing or incorrect values are displayed as -999
Metereological data collected by the RV Zeeleeuw from 2007-11-28 07:53:35 to 2007-11-28 14:54:06
Time Latitude Longitude Speed Direction Temperature Pressure Humidity
2007-11-28 07:54 51°13.616 2°56.028 -999 -999 -999 -999 -999
2007-11-28 07:55 51°13.656 2°55.9 -999 -999 -999 -999 -999
2007-11-28 07:56 51°13.695 2°55.791 -999 -999 -999 -999 -999
2007-11-28 07:57 51°13.713 2°55.722 -999 -999 -999 -999 -999
2007-11-28 07:58 51°13.717 2°55.7 -999 -999 -999 -999 -999
2007-11-28 07:59 51°13.747 2°55.704 -999 -999 -999 -999 -999
2007-11-28 08:00 51°13.833 2°55.639 -999 -999 -999 -999 -999
2007-11-28 08:01 51°13.951 2°55.546 -999 -999 -999 -999 -999
2007-11-28 08:02 51°14.079 2°55.447 -999 -999 -999 -999 -999
2007-11-28 08:03 51°14.194 2°55.346 -999 -999 -999 -999 -999
2007-11-28 08:04 51°14.285 2°55.215 -999 -999 -999 -999 -999
2007-11-28 08:05 51°14.379 2°55.016 -999 -999 -999 -999 -999
2007-11-28 08:06 51°14.495 2°54.752 -999 -999 -999 -999 -999
2007-11-28 08:07 51°14.655 2°54.547 8.5 282 -999 -999 -999
2007-11-28 08:08 51°14.827 2°54.391 6.1 285 6.6 102080 78
2007-11-28 08:09 51°15.004 2°54.228 7.4 282 6.6 102080 78
2007-11-28 08:10 51°15.174 2°54.036 5.1 286 6.6 102070 77
2007-11-28 08:11 51°15.365 2°53.913 3.2 283 6.7 102070 78
2007-11-28 08:12 51°15.55 2°53.759 4.4 286 6.7 102070 78
2007-11-28 08:13 51°15.74 2°53.623 6.2 283 6.7 102070 77
2007-11-28 08:14 51°15.922 2°53.453 6.3 285 6.8 102070 77
2007-11-28 08:15 51°16.107 2°53.296 6 282 6.8 102060 77
2007-11-28 08:16 51°16.293 2°53.137 5.5 283 6.9 102070 77
2007-11-28 08:17 51°16.476 2°52.974 6.1 279 6.9 102070 77
2007-11-28 08:18 51°16.661 2°52.816 4.1 281 6.9 102070 77
2007-11-28 08:19 51°16.851 2°52.686 5.5 281 6.9 102070 77
2007-11-28 08:20 51°17.038 2°52.548 4.9 286 7 102060 78
2007-11-28 08:21 51°17.22 2°52.388 5.6 285 6.9 102060 77
2007-11-28 08:22 51°17.405 2°52.233 5.9 284 7 102060 77
2007-11-28 08:23 51°17.543 2°51.99 9.7 279 7 102050 78
2007-11-28 08:24 51°17.621 2°51.674 13.4 284 7 102040 78
2007-11-28 08:25 51°17.709 2°51.365 13.3 284 7.1 102040 78
2007-11-28 08:26 51°17.791 2°51.047 11.6 285 7.1 102040 78
2007-11-28 08:27 51°17.882 2°50.731 10.5 284 7.1 102030 78
2007-11-28 08:28 51°17.979 2°50.42 12.7 281 7.1 102040 78
2007-11-28 08:29 51°18.073 2°50.108 12.6 308 7.1 102030 78
2007-11-28 08:30 51°18.169 2°49.796 9.6 282 7.2 102040 78
2007-11-28 08:31 51°18.249 2°49.472 13.9 305 7.2 102020 78
2007-11-28 08:32 51°18.321 2°49.141 10.7 280 7.2 102030 78
2007-11-28 08:33 51°18.392 2°48.807 14.3 308 7.3 102020 78
2007-11-28 08:34 51°18.468 2°48.473 12.2 282 7.2 102010 77
2007-11-28 08:35 51°18.546 2°48.136 10.8 307 7.2 102020 78
2007-11-28 08:36 51°18.615 2°47.797 11.5 303 7.3 102020 78
2007-11-28 08:37 51°18.681 2°47.461 11.6 305 7.2 102010 77
2007-11-28 08:38 51°18.746 2°47.123 12 301 7.2 102010 78
2007-11-28 08:39 51°18.809 2°46.782 12.7 285 7.2 102010 78
2007-11-28 08:40 51°18.875 2°46.442 14.4 309 7.2 102010 78
2007-11-28 08:41 51°18.942 2°46.103 13 282 7.2 102010 78
2007-11-28 08:42 51°19.011 2°45.766 14 305 7.2 102000 78
2007-11-28 08:43 51°19.078 2°45.429 10.9 305 7.3 102000 78
2007-11-28 08:44 51°19.147 2°45.091 11.8 306 7.3 102010 78
2007-11-28 08:45 51°19.216 2°44.749 14.7 306 7.3 101990 78
2007-11-28 08:46 51°19.287 2°44.406 12.3 284 7.3 101990 78
2007-11-28 08:47 51°19.355 2°44.064 13.2 305 7.3 101990 78
2007-11-28 08:48 51°19.421 2°43.725 11.6 279 7.3 102010 78
2007-11-28 08:49 51°19.49 2°43.386 11.2 304 7.3 102010 78
2007-11-28 08:50 51°19.56 2°43.048 13.2 279 7.3 102000 78
2007-11-28 08:51 51°19.63 2°42.712 14.3 304 7.4 102010 79
2007-11-28 08:52 51°19.698 2°42.376 13 309 7.4 101990 79
2007-11-28 08:53 51°19.764 2°42.038 13.6 309 7.4 101990 79
2007-11-28 08:54 51°19.83 2°41.697 11.6 308 7.4 101990 79
2007-11-28 08:55 51°19.898 2°41.355 13.1 307 7.4 101990 79
2007-11-28 08:56 51°19.965 2°41.01 14.1 307 7.5 101980 79
2007-11-28 08:57 51°20.021 2°40.657 15.5 308 7.5 101970 79
2007-11-28 08:58 51°20.074 2°40.304 12.6 306 7.5 101980 79
2007-11-28 08:59 51°20.128 2°39.956 14 307 7.5 101980 79
2007-11-28 09:00 51°20.177 2°39.608 15.1 307 7.5 101960 79
2007-11-28 09:01 51°20.228 2°39.259 11.3 304 7.6 101980 79
2007-11-28 09:02 51°20.278 2°38.911 16.2 305 7.6 101980 79
2007-11-28 09:03 51°20.326 2°38.566 15.1 305 7.6 102000 79
2007-11-28 09:04 51°20.377 2°38.22 12.4 305 7.6 101990 79
2007-11-28 09:05 51°20.429 2°37.873 14.5 308 7.6 101970 79
2007-11-28 09:06 51°20.481 2°37.525 14.1 305 7.6 101970 79
2007-11-28 09:07 51°20.534 2°37.177 12.5 303 7.6 101960 79
2007-11-28 09:08 51°20.585 2°36.829 15.1 309 7.7 101970 79
2007-11-28 09:09 51°20.635 2°36.48 11.2 306 7.7 101960 79
2007-11-28 09:10 51°20.684 2°36.129 13.7 308 7.7 101950 79
2007-11-28 09:11 51°20.735 2°35.776 11.7 305 7.7 101960 79
2007-11-28 09:12 51°20.785 2°35.422 12.9 304 7.7 101940 79
2007-11-28 09:13 51°20.836 2°35.069 15.8 308 7.7 101950 80
2007-11-28 09:14 51°20.887 2°34.717 15.1 309 7.7 101950 80
2007-11-28 09:15 51°20.936 2°34.364 12.5 307 7.8 101940 80
2007-11-28 09:16 51°20.985 2°34.011 16.3 306 7.8 101920 80
2007-11-28 09:17 51°21.035 2°33.659 13.6 308 7.8 101950 80
2007-11-28 09:18 51°21.087 2°33.306 16.2 307 7.9 101940 80
2007-11-28 09:19 51°21.148 2°32.96 11.2 304 7.9 101920 80
2007-11-28 09:20 51°21.302 2°32.734 4.4 303 7.9 101950 80
2007-11-28 09:21 51°21.5 2°32.711 3.4 55 7.9 101970 80
2007-11-28 09:22 51°21.699 2°32.731 3.8 56 7.8 101970 80
2007-11-28 09:23 51°21.899 2°32.732 3.4 53 7.8 101970 80
2007-11-28 09:24 51°22.099 2°32.718 5.6 51 7.9 101990 81
2007-11-28 09:25 51°22.3 2°32.706 4.1 57 7.9 101990 80
2007-11-28 09:26 51°22.501 2°32.666 5.7 308 7.9 101990 81
2007-11-28 09:27 51°22.674 2°32.48 15 304 8 101980 81
2007-11-28 09:28 51°22.717 2°32.138 19.2 308 8 101950 81
2007-11-28 09:29 51°22.701 2°31.767 16.5 304 8 101930 81
2007-11-28 09:30 51°22.695 2°31.392 15.7 305 8.1 101930 81
2007-11-28 09:31 51°22.694 2°31.016 18.4 307 8.1 101930 81
2007-11-28 09:32 51°22.693 2°30.642 13.9 303 8.2 101940 81
2007-11-28 09:33 51°22.693 2°30.27 15.9 309 8.2 101930 81
2007-11-28 09:34 51°22.695 2°29.895 16.9 306 8.3 101930 82
2007-11-28 09:35 51°22.69 2°29.524 13.7 304 8.3 101940 82
2007-11-28 09:36 51°22.678 2°29.151 12.8 310 8.3 101920 82
2007-11-28 09:37 51°22.668 2°28.781 17.2 304 8.4 101910 83
2007-11-28 09:38 51°22.656 2°28.411 17.8 306 8.5 101920 83
2007-11-28 09:39 51°22.644 2°28.043 16 304 8.6 101920 83
2007-11-28 09:40 51°22.631 2°27.672 18.5 307 8.6 101910 83
2007-11-28 09:41 51°22.619 2°27.301 18.6 306 8.7 101910 83
2007-11-28 09:42 51°22.609 2°26.932 14.1 308 8.7 101900 82
2007-11-28 09:43 51°22.596 2°26.56 14.6 307 8.7 101900 82
2007-11-28 09:44 51°22.584 2°26.189 17.4 306 8.7 101920 82
2007-11-28 09:45 51°22.574 2°25.817 17.6 304 8.8 101900 83
2007-11-28 09:46 51°22.628 2°25.465 17.2 307 8.8 101900 83
2007-11-28 09:47 51°22.747 2°25.166 12.7 304 8.8 101930 83
2007-11-28 09:48 51°22.93 2°25.019 5.3 54 8.8 101950 83
2007-11-28 09:49 51°23.126 2°25.041 6.2 51 8.7 101960 83
2007-11-28 09:50 51°23.318 2°25.071 5.8 57 8.7 101970 82
2007-11-28 09:51 51°23.512 2°25.096 3.1 55 8.8 101960 83
2007-11-28 09:52 51°23.708 2°25.112 4.3 56 8.8 101970 83
2007-11-28 09:53 51°23.899 2°25.123 5.4 57 8.8 101960 84
2007-11-28 09:54 51°24.087 2°25.126 5 51 8.8 101960 84
2007-11-28 09:55 51°24.274 2°25.133 5.6 55 8.8 101960 84
2007-11-28 09:56 51°24.464 2°25.135 5.6 51 8.8 101970 84
2007-11-28 09:57 51°24.652 2°25.135 3.5 301 8.9 101960 85
2007-11-28 09:58 51°24.84 2°25.14 6.9 54 9 101960 85
2007-11-28 09:59 51°25.03 2°25.143 3.7 57 8.9 101970 84
2007-11-28 10:00 51°25.218 2°25.154 3.3 46 9 101960 85
2007-11-28 10:01 51°25.404 2°25.159 5.9 58 9 101960 85
2007-11-28 10:02 51°25.589 2°25.168 7.4 58 9.1 101960 86
2007-11-28 10:03 51°25.779 2°25.173 7.7 306 9 101960 85
2007-11-28 10:04 51°25.965 2°25.185 7.3 57 9 101960 85
2007-11-28 10:05 51°26.153 2°25.201 6 57 9 101960 85
2007-11-28 10:06 51°26.34 2°25.219 4.9 305 9 101970 85
2007-11-28 10:07 51°26.525 2°25.234 5.4 55 9 101950 84
2007-11-28 10:08 51°26.711 2°25.249 5.1 55 8.9 101960 84
2007-11-28 10:09 51°26.893 2°25.267 5 55 9 101960 85
2007-11-28 10:10 51°27.078 2°25.288 4.5 14 9 101950 85
2007-11-28 10:11 51°27.263 2°25.299 4.2 51 9 101950 85
2007-11-28 10:12 51°27.444 2°25.316 5.6 54 9.1 101960 85
2007-11-28 10:13 51°27.626 2°25.331 4 309 9.1 101960 86
2007-11-28 10:14 51°27.807 2°25.351 4.9 54 9.1 101950 86
2007-11-28 10:15 51°27.989 2°25.365 5.3 306 9.1 101950 86
2007-11-28 10:16 51°28.173 2°25.38 6.6 52 9.1 101950 85
2007-11-28 10:17 51°28.356 2°25.394 5 53 9.1 101950 85
2007-11-28 10:18 51°28.539 2°25.418 5.2 56 9.1 101940 86
2007-11-28 10:19 51°28.722 2°25.451 7.2 57 9.1 101940 86
2007-11-28 10:20 51°28.904 2°25.476 7.8 57 9.1 101940 86
2007-11-28 10:21 51°29.084 2°25.501 4.4 312 9.1 101940 86
2007-11-28 10:22 51°29.265 2°25.498 5.4 54 9.2 101940 87
2007-11-28 10:23 51°29.45 2°25.494 4.8 51 9.2 101940 87
2007-11-28 10:24 51°29.634 2°25.499 6.2 304 9.2 101920 87
2007-11-28 10:25 51°29.817 2°25.503 6 305 9.2 101930 87
2007-11-28 10:26 51°30 2°25.497 8.1 56 9.2 101920 87
2007-11-28 10:27 51°30.183 2°25.488 6.4 54 9.2 101920 87
2007-11-28 10:28 51°30.366 2°25.479 5.1 54 9.2 101920 87
2007-11-28 10:29 51°30.548 2°25.471 8.4 306 9.3 101920 88
2007-11-28 10:30 51°30.729 2°25.461 5.1 308 9.4 101910 88
2007-11-28 10:31 51°30.902 2°25.498 6.2 52 9.4 101910 88
2007-11-28 10:32 51°31.071 2°25.59 3.4 54 9.4 101910 88
2007-11-28 10:33 51°31.236 2°25.696 4.7 58 9.5 101910 89
2007-11-28 10:34 51°31.386 2°25.845 3.6 55 9.6 101910 89
2007-11-28 10:35 51°31.539 2°25.988 4 57 9.9 101910 91
2007-11-28 10:36 51°31.695 2°26.127 4.5 55 10.1 101900 89
2007-11-28 10:37 51°31.847 2°26.272 3 53 10.2 101910 86
2007-11-28 10:38 51°31.999 2°26.418 3.3 58 10.4 101910 86
2007-11-28 10:39 51°32.154 2°26.554 2.4 51 10.3 101910 84
2007-11-28 10:40 51°32.309 2°26.7 3.5 53 10.4 101900 84
2007-11-28 10:41 51°32.466 2°26.841 2.7 52 10.3 101900 84
2007-11-28 10:42 51°32.625 2°26.976 4.1 53 10.4 101900 84
2007-11-28 10:43 51°32.779 2°27.116 4.3 51 10.3 101900 84
2007-11-28 10:44 51°32.94 2°27.261 6.2 57 10.3 101890 82
2007-11-28 10:45 51°33.098 2°27.405 3.8 50 10.1 101890 83
2007-11-28 10:46 51°33.252 2°27.545 4.8 52 10.4 101890 84
2007-11-28 10:47 51°33.41 2°27.68 3.9 54 10.3 101890 83
2007-11-28 10:48 51°33.571 2°27.816 3.1 58 10.3 101890 82
2007-11-28 10:49 51°33.732 2°27.952 4.3 55 10.3 101890 83
2007-11-28 10:50 51°33.89 2°28.096 4.4 57 10.2 101890 84
2007-11-28 10:51 51°34.046 2°28.24 2.9 55 10.2 101880 84
2007-11-28 10:52 51°34.202 2°28.385 4.7 58 10.4 101870 84
2007-11-28 10:53 51°34.36 2°28.523 4 57 10.6 101880 83
2007-11-28 10:54 51°34.514 2°28.676 2.6 58 10.5 101880 82
2007-11-28 10:55 51°34.664 2°28.835 3.4 51 10.7 101870 82
2007-11-28 10:56 51°34.812 2°28.992 3.2 58 10.7 101870 83
2007-11-28 10:57 51°34.968 2°29.144 4.5 56 10.8 101870 83
2007-11-28 10:58 51°35.121 2°29.303 3.5 53 10.9 101860 83
2007-11-28 10:59 51°35.274 2°29.472 3.7 56 11.2 101860 81
2007-11-28 11:00 51°35.433 2°29.622 4.6 52 11.2 101860 79
2007-11-28 11:01 51°35.588 2°29.768 4.3 51 11.2 101860 77
2007-11-28 11:02 51°35.748 2°29.914 3.3 50 11.1 101860 78
2007-11-28 11:03 51°35.9 2°30.065 3.5 54 10.9 101850 77
2007-11-28 11:04 51°36.057 2°30.214 3.6 50 10.9 101860 80
2007-11-28 11:05 51°36.213 2°30.355 4 58 11 101860 79
2007-11-28 11:06 51°36.366 2°30.506 3.7 58 11.2 101850 79
2007-11-28 11:07 51°36.522 2°30.653 3.4 55 11.1 101850 78
2007-11-28 11:08 51°36.676 2°30.807 2.7 51 11.1 101850 79
2007-11-28 11:09 51°36.826 2°30.963 4.4 53 11.1 101840 78
2007-11-28 11:10 51°36.98 2°31.119 3.4 57 10.9 101840 79
2007-11-28 11:11 51°37.137 2°31.269 4.5 52 10.8 101840 78
2007-11-28 11:12 51°37.293 2°31.424 4.3 52 10.6 101840 79
2007-11-28 11:13 51°37.443 2°31.589 4.3 57 10.6 101840 81
2007-11-28 11:14 51°37.598 2°31.746 4.8 50 10.5 101840 82
2007-11-28 11:15 51°37.748 2°31.911 5.7 53 10.7 101840 83
2007-11-28 11:16 51°37.906 2°32.062 5.7 50 10.8 101840 83
2007-11-28 11:17 51°38.06 2°32.215 2.3 52 11 101830 81
2007-11-28 11:18 51°38.216 2°32.369 4.5 54 10.8 101840 79
2007-11-28 11:19 51°38.369 2°32.531 3.4 56 10.7 101840 81
2007-11-28 11:20 51°38.523 2°32.695 3.7 57 10.6 101830 82
2007-11-28 11:21 51°38.678 2°32.857 3.6 56 10.5 101830 83
2007-11-28 11:22 51°38.835 2°33.023 5 56 10.4 101840 85
2007-11-28 11:23 51°38.995 2°33.185 3.6 51 10.1 101840 84
2007-11-28 11:24 51°39.155 2°33.349 4.8 51 10 101820 86
2007-11-28 11:25 51°39.315 2°33.511 4.1 51 9.9 101830 87
2007-11-28 11:26 51°39.478 2°33.666 5.8 53 9.9 101820 88
2007-11-28 11:27 51°39.641 2°33.82 4.6 55 9.7 101810 89
2007-11-28 11:28 51°39.807 2°33.973 3.7 57 9.6 101810 89
2007-11-28 11:29 51°39.972 2°34.131 4 57 9.5 101810 90
2007-11-28 11:30 51°40.13 2°34.292 3.5 58 9.6 101810 92
2007-11-28 11:31 51°40.292 2°34.449 4.8 56 9.8 101810 93
2007-11-28 11:32 51°40.454 2°34.604 3.8 56 9.9 101800 92
2007-11-28 11:33 51°40.614 2°34.765 3 56 10.1 101800 93
2007-11-28 11:34 51°40.775 2°34.926 4.4 58 10.3 101790 92
2007-11-28 11:35 51°40.939 2°35.079 4.1 57 10.4 101800 92
2007-11-28 11:36 51°41.096 2°35.248 3.7 54 10.2 101790 88
2007-11-28 11:37 51°41.216 2°35.466 7.5 31 10 101780 88
2007-11-28 11:38 51°41.256 2°35.767 9.5 21 9.7 101780 88
2007-11-28 11:39 51°41.244 2°36.075 13.3 13 9.6 101760 90
2007-11-28 11:40 51°41.161 2°36.366 11.9 13 9.5 101740 91
2007-11-28 11:41 51°41.076 2°36.658 11.5 11 9.4 101740 92
2007-11-28 11:42 51°40.995 2°36.959 15.2 16 9.3 101750 93
2007-11-28 11:43 51°40.905 2°37.255 15.2 9 9.3 101750 93
2007-11-28 11:44 51°40.802 2°37.542 9.7 5 9.2 101730 94
2007-11-28 11:45 51°40.706 2°37.837 11.4 9 9.2 101740 94
2007-11-28 11:46 51°40.609 2°38.13 9 6 9.2 101730 94
2007-11-28 11:47 51°40.518 2°38.428 14.8 11 9.1 101740 94
2007-11-28 11:48 51°40.422 2°38.724 12.2 9 9.1 101730 94
2007-11-28 11:49 51°40.326 2°39.018 14.1 8 9 101720 94
2007-11-28 11:50 51°40.234 2°39.313 12.1 7 9.1 101750 95
2007-11-28 11:51 51°40.141 2°39.605 12.3 10 9 101730 94
2007-11-28 11:52 51°40.052 2°39.899 13.4 9 9 101720 95
2007-11-28 11:53 51°39.963 2°40.19 14.2 8 8.9 101730 95
2007-11-28 11:54 51°39.873 2°40.482 12.3 7 8.9 101710 95
2007-11-28 11:55 51°39.777 2°40.77 13.7 8 9 101730 95
2007-11-28 11:56 51°39.682 2°41.063 14.4 8 9 101730 94
2007-11-28 11:57 51°39.587 2°41.354 13.6 7 8.9 101710 93
2007-11-28 11:58 51°39.438 2°41.581 18.8 358 9 101720 93
2007-11-28 11:59 51°39.23 2°41.633 19 339 9 101740 92
2007-11-28 12:00 51°39.038 2°41.487 18 303 9 101710 92
2007-11-28 12:01 51°38.945 2°41.187 16.7 306 9 101700 93
2007-11-28 12:02 51°38.89 2°40.856 18.3 306 9 101690 93
2007-11-28 12:03 51°38.823 2°40.552 14.4 304 8.9 101690 93
2007-11-28 12:04 51°38.755 2°40.265 19.2 307 8.9 101700 93
2007-11-28 12:05 51°38.676 2°39.949 14.5 304 8.9 101690 93
2007-11-28 12:06 51°38.593 2°39.636 18.4 305 8.9 101690 93
2007-11-28 12:07 51°38.512 2°39.326 17.1 306 8.9 101680 93
2007-11-28 12:08 51°38.435 2°39.017 16.8 309 8.8 101690 93
2007-11-28 12:09 51°38.356 2°38.711 20.2 307 8.8 101700 94
2007-11-28 12:10 51°38.281 2°38.396 17.4 308 8.8 101670 95
2007-11-28 12:11 51°38.206 2°38.083 14.5 309 8.7 101690 95
2007-11-28 12:12 51°38.134 2°37.774 17.5 306 8.7 101700 95
2007-11-28 12:13 51°38.062 2°37.463 17.9 305 8.7 101680 95
2007-11-28 12:14 51°37.994 2°37.15 17.2 306 8.7 101680 95
2007-11-28 12:15 51°37.926 2°36.84 19 304 8.7 101670 96
2007-11-28 12:16 51°37.855 2°36.524 17.4 307 8.7 101690 96
2007-11-28 12:17 51°37.789 2°36.218 16.2 305 8.7 101670 96
2007-11-28 12:18 51°37.725 2°35.916 16.3 305 8.7 101650 96
2007-11-28 12:19 51°37.656 2°35.609 15.3 304 8.7 101670 96
2007-11-28 12:20 51°37.582 2°35.29 16.8 308 8.7 101650 96
2007-11-28 12:21 51°37.517 2°34.986 14.1 304 8.8 101650 96
2007-11-28 12:22 51°37.453 2°34.679 15.7 305 8.8 101660 96
2007-11-28 12:23 51°37.389 2°34.379 16.3 307 8.8 101670 96
2007-11-28 12:24 51°37.318 2°34.077 16 306 8.8 101650 96
2007-11-28 12:25 51°37.163 2°33.881 16.9 334 8.8 101670 96
2007-11-28 12:26 51°36.96 2°33.787 16.7 335 8.8 101680 96
2007-11-28 12:27 51°36.759 2°33.715 17.7 335 8.8 101680 96
2007-11-28 12:28 51°36.56 2°33.638 17.4 331 8.7 101680 95
2007-11-28 12:29 51°36.365 2°33.552 17.5 333 8.7 101670 95
2007-11-28 12:30 51°36.165 2°33.463 16.7 334 8.7 101690 94
2007-11-28 12:31 51°35.962 2°33.369 18.5 332 8.8 101690 94
2007-11-28 12:32 51°35.762 2°33.277 17.5 333 8.7 101680 93
2007-11-28 12:33 51°35.568 2°33.19 17.1 333 8.7 101680 92
2007-11-28 12:34 51°35.368 2°33.101 17.2 335 8.6 101680 92
2007-11-28 12:35 51°35.168 2°33.013 18.7 334 8.7 101680 91
2007-11-28 12:36 51°34.971 2°32.93 17.5 335 8.7 101670 90
2007-11-28 12:37 51°34.777 2°32.85 17.2 334 8.7 101670 90
2007-11-28 12:38 51°34.582 2°32.77 19.4 332 8.7 101670 90
2007-11-28 12:39 51°34.383 2°32.686 15.9 334 8.8 101680 90
2007-11-28 12:40 51°34.191 2°32.609 15.3 333 8.7 101690 90
2007-11-28 12:41 51°33.995 2°32.523 15 334 8.6 101660 89
2007-11-28 12:42 51°33.796 2°32.436 15.5 330 8.7 101670 90
2007-11-28 12:43 51°33.599 2°32.354 17 332 8.6 101670 89
2007-11-28 12:44 51°33.401 2°32.269 15.7 335 8.6 101660 89
2007-11-28 12:45 51°33.196 2°32.237 18.9 338 8.7 101670 89
2007-11-28 12:46 51°32.991 2°32.228 15.9 338 8.7 101670 88
2007-11-28 12:47 51°32.788 2°32.22 16.6 337 8.8 101650 88
2007-11-28 12:48 51°32.583 2°32.207 18.3 338 8.7 101650 88
2007-11-28 12:49 51°32.379 2°32.194 18.5 339 8.7 101650 88
2007-11-28 12:50 51°32.175 2°32.178 17.5 337 8.6 101650 89
2007-11-28 12:51 51°31.973 2°32.166 15.9 339 8.5 101650 89
2007-11-28 12:52 51°31.77 2°32.154 16.9 336 8.4 101660 90
2007-11-28 12:53 51°31.566 2°32.159 17.8 341 8.4 101650 91
2007-11-28 12:54 51°31.366 2°32.209 17.3 342 8.3 101640 91
2007-11-28 12:55 51°31.167 2°32.261 16.2 340 8.2 101630 92
2007-11-28 12:56 51°30.969 2°32.318 16.6 342 8.2 101640 92
2007-11-28 12:57 51°30.774 2°32.403 17.5 349 8.1 101640 93
2007-11-28 12:58 51°30.58 2°32.511 16.6 346 8.1 101640 94
2007-11-28 12:59 51°30.388 2°32.635 18 345 8.1 101620 94
2007-11-28 13:00 51°30.2 2°32.778 15.8 348 7.9 101630 95
2007-11-28 13:01 51°30.014 2°32.932 15 347 7.9 101630 95
2007-11-28 13:02 51°29.843 2°33.127 14.2 355 8 101630 96
2007-11-28 13:03 51°29.73 2°33.427 14.9 358 7.9 101620 96
2007-11-28 13:04 51°29.624 2°33.744 15.3 359 7.8 101620 96
2007-11-28 13:05 51°29.51 2°34.051 14.5 357 7.9 101630 96
2007-11-28 13:06 51°29.373 2°34.318 13.2 354 7.9 101630 96
2007-11-28 13:07 51°29.228 2°34.57 16 355 7.9 101610 96
2007-11-28 13:08 51°29.084 2°34.825 14.7 356 7.9 101620 95
2007-11-28 13:09 51°28.942 2°35.083 14.5 355 7.9 101620 95
2007-11-28 13:10 51°28.803 2°35.343 13.9 357 8 101610 95
2007-11-28 13:11 51°28.664 2°35.605 14.8 352 8 101630 95
2007-11-28 13:12 51°28.523 2°35.868 15.1 351 7.9 101620 94
2007-11-28 13:13 51°28.383 2°36.132 14.6 352 7.9 101620 94
2007-11-28 13:14 51°28.242 2°36.396 15.2 355 8 101620 92
2007-11-28 13:15 51°28.1 2°36.656 13.9 350 8 101630 91
2007-11-28 13:16 51°27.96 2°36.912 14.3 351 8 101630 90
2007-11-28 13:17 51°27.819 2°37.165 16.7 355 8 101610 88
2007-11-28 13:18 51°27.676 2°37.413 14.4 350 8.1 101610 87
2007-11-28 13:19 51°27.538 2°37.668 14.3 353 8.1 101600 86
2007-11-28 13:20 51°27.399 2°37.924 14.6 352 8.2 101610 85
2007-11-28 13:21 51°27.257 2°38.182 13.6 349 8.2 101620 85
2007-11-28 13:22 51°27.117 2°38.442 14.4 353 8.1 101600 84
2007-11-28 13:23 51°26.977 2°38.701 14.9 354 8.1 101610 83
2007-11-28 13:24 51°26.836 2°38.958 15.2 352 8.1 101610 83
2007-11-28 13:25 51°26.694 2°39.214 14.9 353 8.1 101620 83
2007-11-28 13:26 51°26.553 2°39.469 14.5 349 8.2 101610 82
2007-11-28 13:27 51°26.414 2°39.726 15.1 352 8.1 101610 81
2007-11-28 13:28 51°26.277 2°39.987 15.5 350 8.1 101600 81
2007-11-28 13:29 51°26.125 2°40.222 15.5 352 8.1 101600 81
2007-11-28 13:30 51°25.972 2°40.454 14.9 348 8.2 101590 81
2007-11-28 13:31 51°25.818 2°40.682 16.3 345 8.2 101590 81
2007-11-28 13:32 51°25.667 2°40.916 15.6 348 8.1 101610 81
2007-11-28 13:33 51°25.518 2°41.147 14.8 345 8.1 101600 81
2007-11-28 13:34 51°25.367 2°41.377 15.1 349 8.1 101600 81
2007-11-28 13:35 51°25.215 2°41.607 15.9 347 8 101600 80
2007-11-28 13:36 51°25.046 2°41.784 15.7 345 8 101620 79
2007-11-28 13:37 51°24.868 2°41.928 16 344 8 101600 80
2007-11-28 13:38 51°24.691 2°42.075 16.3 345 8 101600 80
2007-11-28 13:39 51°24.514 2°42.221 16.6 346 8 101600 81
2007-11-28 13:40 51°24.348 2°42.401 15.4 349 8 101590 80
2007-11-28 13:41 51°24.188 2°42.607 16.4 344 8 101590 80
2007-11-28 13:42 51°24.024 2°42.808 17 343 8 101590 80
2007-11-28 13:43 51°23.843 2°42.954 17 342 8 101590 80
2007-11-28 13:44 51°23.658 2°43.089 17.6 339 8 101590 80
2007-11-28 13:45 51°23.474 2°43.226 15.7 342 7.9 101600 80
2007-11-28 13:46 51°23.293 2°43.365 17.2 341 7.9 101590 80
2007-11-28 13:47 51°23.112 2°43.497 17.1 340 7.9 101590 79
2007-11-28 13:48 51°22.938 2°43.652 15.7 345 7.9 101580 79
2007-11-28 13:49 51°22.784 2°43.871 15.6 348 7.8 101590 79
2007-11-28 13:50 51°22.631 2°44.095 16.2 346 7.8 101570 79
2007-11-28 13:51 51°22.478 2°44.322 15.8 347 7.8 101570 79
2007-11-28 13:52 51°22.327 2°44.551 13.7 349 7.8 101580 80
2007-11-28 13:53 51°22.173 2°44.778 15.8 349 7.8 101590 80
2007-11-28 13:54 51°22.02 2°45.004 15.4 347 7.8 101580 80
2007-11-28 13:55 51°21.866 2°45.231 15 347 7.7 101580 80
2007-11-28 13:56 51°21.711 2°45.458 15.1 346 7.7 101580 79
2007-11-28 13:57 51°21.557 2°45.686 15.1 346 7.7 101580 80
2007-11-28 13:58 51°21.402 2°45.917 14.5 346 7.7 101570 80
2007-11-28 13:59 51°21.251 2°46.155 15.4 347 7.6 101580 80
2007-11-28 14:00 51°21.106 2°46.404 16.7 349 7.6 101570 79
2007-11-28 14:01 51°20.959 2°46.65 15.8 347 7.6 101570 79
2007-11-28 14:02 51°20.811 2°46.897 16.1 351 7.6 101560 79
2007-11-28 14:03 51°20.663 2°47.146 15.7 347 7.6 101540 79
2007-11-28 14:04 51°20.512 2°47.393 13.6 345 7.6 101540 80
2007-11-28 14:05 51°20.361 2°47.639 14.7 345 7.6 101540 79
2007-11-28 14:06 51°20.212 2°47.886 15.6 346 7.6 101540 79
2007-11-28 14:07 51°20.067 2°48.135 15 343 7.6 101550 80
2007-11-28 14:08 51°19.925 2°48.379 13.3 344 7.5 101540 80
2007-11-28 14:09 51°19.786 2°48.624 15.3 348 7.5 101550 80
2007-11-28 14:10 51°19.643 2°48.863 15.8 349 7.5 101540 80
2007-11-28 14:11 51°19.497 2°49.102 14.7 346 7.5 101530 81
2007-11-28 14:12 51°19.353 2°49.345 15.7 347 7.4 101530 80
2007-11-28 14:13 51°19.205 2°49.589 15.6 347 7.3 101530 80
2007-11-28 14:14 51°19.053 2°49.829 14.3 345 7.3 101540 80
2007-11-28 14:15 51°18.904 2°50.077 13.3 348 7.3 101540 81
2007-11-28 14:16 51°18.754 2°50.319 14.2 345 7.4 101550 81
2007-11-28 14:17 51°18.606 2°50.562 14.8 344 7.4 101550 82
2007-11-28 14:18 51°18.463 2°50.809 14.8 347 7.3 101550 81
2007-11-28 14:19 51°18.318 2°51.05 14.5 345 7.3 101540 82
2007-11-28 14:20 51°18.174 2°51.288 14.3 345 7.3 101550 82
2007-11-28 14:21 51°18.02 2°51.507 15.1 342 7.2 101550 82
2007-11-28 14:22 51°17.85 2°51.677 14.9 342 7.2 101550 82
2007-11-28 14:23 51°17.678 2°51.842 14.4 340 7.1 101560 82
2007-11-28 14:24 51°17.506 2°52.007 13.4 340 7.1 101550 83
2007-11-28 14:25 51°17.334 2°52.174 14.7 340 7.1 101560 83
2007-11-28 14:26 51°17.162 2°52.345 14.4 341 7.1 101550 83
2007-11-28 14:27 51°16.984 2°52.498 15.5 338 7.1 101550 82
2007-11-28 14:28 51°16.805 2°52.641 15.7 337 7.1 101550 81
2007-11-28 14:29 51°16.623 2°52.787 14.7 338 7.1 101550 81
2007-11-28 14:30 51°16.444 2°52.943 14.9 335 7.2 101560 82
2007-11-28 14:31 51°16.269 2°53.106 14.7 336 7.1 101560 81
2007-11-28 14:32 51°16.097 2°53.264 16.6 336 7.1 101550 81
2007-11-28 14:33 51°15.923 2°53.417 15 338 7.1 101560 80
2007-11-28 14:34 51°15.75 2°53.57 13.8 335 7.1 101560 79
2007-11-28 14:35 51°15.574 2°53.72 13.5 336 7.1 101560 79
2007-11-28 14:36 51°15.399 2°53.871 13.5 338 7.1 101560 79
2007-11-28 14:37 51°15.225 2°54.014 14.7 338 7.1 101560 78
2007-11-28 14:38 51°15.049 2°54.152 12.9 338 7.2 101560 78
2007-11-28 14:39 51°14.877 2°54.31 13 339 7.1 101560 78
2007-11-28 14:40 51°14.711 2°54.49 13.2 337 7.1 101550 77
2007-11-28 14:41 51°14.562 2°54.714 13.8 339 7.1 101550 77
2007-11-28 14:42 51°14.425 2°54.967 12.7 341 7.1 101560 76
2007-11-28 14:43 51°14.287 2°55.207 10.1 345 7.1 101560 75
2007-11-28 14:44 51°14.153 2°55.392 10 338 7.2 101580 75
2007-11-28 14:45 51°14.052 2°55.466 9.7 335 7.2 101590 74
2007-11-28 14:46 51°13.96 2°55.534 8.6 336 7.2 101580 74
2007-11-28 14:47 51°13.869 2°55.603 8.5 333 7.2 101590 74
2007-11-28 14:48 51°13.775 2°55.693 7 339 7.2 101580 74
2007-11-28 14:49 51°13.704 2°55.809 6.1 343 7.1 101590 75
2007-11-28 14:50 51°13.648 2°55.923 5.6 343 7.1 101600 75
2007-11-28 14:51 51°13.615 2°56.01 5.9 353 7 101600 75
2007-11-28 14:52 51°13.601 2°56.08 4.3 3 7 101600 76
2007-11-28 14:53 51°13.597 2°56.093 3.6 351 7 101600 76